< Typhoon 195405 1954 Season Typhoon 195407 >
Typhoon 195406 (HELEN)
General InformationTrack Information on Google Maps || Disaster Info.ResourceGoogle EarthGE AnimationAtom FeedGeoJSON
Detalied Best Track (Time Zone = UTC)
Year Month Day Hour Lat. Long. Pressure (hPa) Wind (kt) Class Image Chart
1954 8 13 00 28.0 146.8 985 0 9 -- Chart
1954 8 13 06 28.2 146.7 985 0 9 -- Chart
1954 8 13 12 28.2 146.7 980 0 9 -- Chart
1954 8 13 18 28.2 146.7 970 0 9 -- Chart
1954 8 14 00 28.5 145.9 965 0 9 -- Chart
1954 8 14 06 29.0 146.2 975 0 9 -- Chart
1954 8 14 12 29.3 145.8 975 0 9 -- Chart
1954 8 14 18 29.7 144.8 975 0 9 -- Chart
1954 8 15 00 30.0 143.9 980 0 9 -- Chart
1954 8 15 06 30.7 144.0 980 0 9 -- Chart
1954 8 15 12 31.4 143.8 980 0 9 -- Chart
1954 8 15 18 32.0 143.2 980 0 9 -- Chart
1954 8 16 00 32.5 142.6 980 0 9 -- Chart
1954 8 16 06 33.1 142.4 980 0 9 -- Chart
1954 8 16 12 33.9 142.2 980 0 9 -- Chart
1954 8 16 18 34.8 142.0 980 0 9 -- Chart
1954 8 17 00 35.5 142.0 980 0 9 -- Chart
1954 8 17 06 36.3 142.5 980 0 9 -- Chart
1954 8 17 12 37.1 143.7 995 0 2 -- Chart
1954 8 17 18 37.7 144.8 995 0 2 -- Chart
1954 8 18 00 38.1 145.8 996 0 6 -- Chart
1954 8 18 06 39.2 147.8 998 0 6 -- Chart
1954 8 18 12 40.7 150.8 998 0 6 -- Chart
1954 8 18 18 41.6 152.9 998 0 6 -- Chart
1954 8 19 00 42.5 155.5 1000 0 6 -- Chart
1954 8 19 06 43.2 157.9 1000 0 6 -- Chart
1954 8 19 12 43.7 160.2 1002 0 6 -- Chart
1954 8 19 18 44.3 162.9 1002 0 6 -- Chart
1954 8 20 00 45.0 165.0 1004 0 6 -- Chart
1954 8 20 06 45.3 166.6 1004 0 6 -- Chart
1954 8 20 12 45.7 168.2 1004 0 6 -- Chart
1954 8 20 18 46.3 170.7 1000 0 6 -- Chart
1954 8 21 00 46.9 173.0 994 0 6 -- Chart
1954 8 21 06 47.4 175.0 990 0 6 -- Chart
1954 8 21 12 47.9 177.0 984 0 6 -- Chart
1954 8 21 18 48.8 178.6 982 0 6 -- Chart
1954 8 22 00 49.8 180.1 978 0 6 -- Chart
Japan Meteorological Agency Best Track Data | Correction Date : 1991-07-16
< Typhoon 195405 1954 Season Typhoon 195407 >

Help